weather.gov     
National Weather Service

Terminal Aerodrome Forecast
NWS Homepage
This page is being discontinued on March 12, 2014.
The same data is available at this site. Please update your bookmarks.
Thank you, and we apologize for the inconvenience.
Please send an email to SR-SRH.Webmaster@noaa.gov with any concerns.


Current Version
Previous Version:    01  02  03  04  05  06  07  08  09  10  11  12  13  14  15  16  17  18  19  20  21  22  23  24  25  26  27  28  29  30  
   31  32  33  34  35  36  37  38  39  40  41  
[Printable]
465
FTUS46 KPQR 251140
TAFHIO
TAF
KHIO 251140Z 2512/2612 30003KT P6SM SCT080 BKN200
     FM251400 08006KT P6SM -RA BKN050 OVC100
     FM251800 14011KT P6SM -RA OVC050
     FM252300 18018G32KT P6SM -RA SCT030 OVC050
     FM260200 21015G25KT P6SM -SHRA SCT030 BKN050
     FM260500 23010KT P6SM -SHRA BKN030 BKN050=


465
FTUS46 KPQR 251140
TAFHIO
TAF
KHIO 251140Z 2512/2612 30003KT P6SM SCT080 BKN200
     FM251400 08006KT P6SM -RA BKN050 OVC100
     FM251800 14011KT P6SM -RA OVC050
     FM252300 18018G32KT P6SM -RA SCT030 OVC050
     FM260200 21015G25KT P6SM -SHRA SCT030 BKN050
     FM260500 23010KT P6SM -SHRA BKN030 BKN050=




U.S. Dept. of Commerce
NOAA National Weather Service
1325 East West Highway
Silver Spring, MD 20910
E-mail: w-nws.webmaster@noaa.gov
Page last modified: May 16, 2007
NATIONAL WEATHER SERVICE: for Safety, for Work, for Fun - FOR LIFE